sensor_id;sensor_type;location;lat;lon;timestamp;temperature;humidity
51878;SHT31;37911;51.526;11.536;2024-01-30T00:00:51;6.22;76.86
51878;SHT31;37911;51.526;11.536;2024-01-30T00:03:55;6.12;77.12
51878;SHT31;37911;51.526;11.536;2024-01-30T00:06:58;6.12;77.21
51878;SHT31;37911;51.526;11.536;2024-01-30T00:10:04;6.07;77.15
51878;SHT31;37911;51.526;11.536;2024-01-30T00:13:08;5.97;77.42
51878;SHT31;37911;51.526;11.536;2024-01-30T00:16:20;5.97;77.31
51878;SHT31;37911;51.526;11.536;2024-01-30T00:19:24;5.93;77.36
51878;SHT31;37911;51.526;11.536;2024-01-30T00:22:28;5.86;77.41
51878;SHT31;37911;51.526;11.536;2024-01-30T00:25:34;5.86;77.31
51878;SHT31;37911;51.526;11.536;2024-01-30T00:28:37;5.81;77.30
51878;SHT31;37911;51.526;11.536;2024-01-30T00:31:41;5.77;77.36
51878;SHT31;37911;51.526;11.536;2024-01-30T00:34:44;5.74;77.41
51878;SHT31;37911;51.526;11.536;2024-01-30T00:37:48;5.70;77.20
51878;SHT31;37911;51.526;11.536;2024-01-30T00:40:54;5.68;77.15
51878;SHT31;37911;51.526;11.536;2024-01-30T00:43:57;5.57;77.48
51878;SHT31;37911;51.526;11.536;2024-01-30T00:47:00;5.48;77.68
51878;SHT31;37911;51.526;11.536;2024-01-30T00:50:05;5.44;77.72
51878;SHT31;37911;51.526;11.536;2024-01-30T00:53:08;5.35;78.02
51878;SHT31;37911;51.526;11.536;2024-01-30T00:56:14;5.25;78.32
51878;SHT31;37911;51.526;11.536;2024-01-30T00:59:19;5.15;78.43
51878;SHT31;37911;51.526;11.536;2024-01-30T01:02:22;5.12;78.54
51878;SHT31;37911;51.526;11.536;2024-01-30T01:05:25;5.11;78.46
51878;SHT31;37911;51.526;11.536;2024-01-30T01:08:29;5.05;78.54
51878;SHT31;37911;51.526;11.536;2024-01-30T01:11:35;4.89;78.84
51878;SHT31;37911;51.526;11.536;2024-01-30T01:14:39;4.85;78.81
51878;SHT31;37911;51.526;11.536;2024-01-30T01:17:42;4.79;78.82
51878;SHT31;37911;51.526;11.536;2024-01-30T01:20:45;4.71;78.99
51878;SHT31;37911;51.526;11.536;2024-01-30T01:23:49;4.73;78.90
51878;SHT31;37911;51.526;11.536;2024-01-30T01:26:54;4.67;79.11
51878;SHT31;37911;51.526;11.536;2024-01-30T01:29:58;4.61;79.32
51878;SHT31;37911;51.526;11.536;2024-01-30T01:33:01;4.54;79.67
51878;SHT31;37911;51.526;11.536;2024-01-30T01:36:05;4.52;79.74
51878;SHT31;37911;51.526;11.536;2024-01-30T01:39:08;4.45;79.71
51878;SHT31;37911;51.526;11.536;2024-01-30T01:42:14;4.42;79.78
51878;SHT31;37911;51.526;11.536;2024-01-30T01:45:18;4.38;79.82
51878;SHT31;37911;51.526;11.536;2024-01-30T01:48:21;4.34;80.08
51878;SHT31;37911;51.526;11.536;2024-01-30T01:51:26;4.25;80.20
51878;SHT31;37911;51.526;11.536;2024-01-30T01:54:30;4.21;80.30
51878;SHT31;37911;51.526;11.536;2024-01-30T01:57:37;4.22;80.43
51878;SHT31;37911;51.526;11.536;2024-01-30T02:00:40;4.17;80.43
51878;SHT31;37911;51.526;11.536;2024-01-30T02:03:45;4.06;80.72
51878;SHT31;37911;51.526;11.536;2024-01-30T02:06:48;4.00;80.87
51878;SHT31;37911;51.526;11.536;2024-01-30T02:09:52;3.83;81.04
51878;SHT31;37911;51.526;11.536;2024-01-30T02:12:58;3.69;81.48
51878;SHT31;37911;51.526;11.536;2024-01-30T02:16:01;3.59;81.80
51878;SHT31;37911;51.526;11.536;2024-01-30T02:19:04;3.54;81.90
51878;SHT31;37911;51.526;11.536;2024-01-30T02:22:11;3.43;82.00
51878;SHT31;37911;51.526;11.536;2024-01-30T02:25:14;3.36;82.25
51878;SHT31;37911;51.526;11.536;2024-01-30T02:28:17;3.34;82.44
51878;SHT31;37911;51.526;11.536;2024-01-30T02:31:21;3.26;82.66
51878;SHT31;37911;51.526;11.536;2024-01-30T02:34:24;3.25;82.79
51878;SHT31;37911;51.526;11.536;2024-01-30T02:37:30;3.22;82.71
51878;SHT31;37911;51.526;11.536;2024-01-30T02:40:33;3.18;82.83
51878;SHT31;37911;51.526;11.536;2024-01-30T02:43:37;3.12;82.92
51878;SHT31;37911;51.526;11.536;2024-01-30T02:46:40;3.14;82.95
51878;SHT31;37911;51.526;11.536;2024-01-30T02:49:44;3.05;83.06
51878;SHT31;37911;51.526;11.536;2024-01-30T02:52:49;3.07;83.38
51878;SHT31;37911;51.526;11.536;2024-01-30T02:55:53;3.02;83.52
51878;SHT31;37911;51.526;11.536;2024-01-30T02:58:56;3.00;83.54
51878;SHT31;37911;51.526;11.536;2024-01-30T03:01:59;2.98;83.74
51878;SHT31;37911;51.526;11.536;2024-01-30T03:05:04;3.02;83.85
51878;SHT31;37911;51.526;11.536;2024-01-30T03:08:10;3.04;83.77
51878;SHT31;37911;51.526;11.536;2024-01-30T03:11:13;3.11;83.71
51878;SHT31;37911;51.526;11.536;2024-01-30T03:14:17;3.09;83.72
51878;SHT31;37911;51.526;11.536;2024-01-30T03:17:20;3.09;83.78
51878;SHT31;37911;51.526;11.536;2024-01-30T03:20:24;3.12;83.70
51878;SHT31;37911;51.526;11.536;2024-01-30T03:23:30;3.11;83.60
51878;SHT31;37911;51.526;11.536;2024-01-30T03:26:33;3.04;83.54
51878;SHT31;37911;51.526;11.536;2024-01-30T03:29:37;2.98;83.54
51878;SHT31;37911;51.526;11.536;2024-01-30T03:32:40;2.91;83.82
51878;SHT31;37911;51.526;11.536;2024-01-30T03:35:44;2.95;83.98
51878;SHT31;37911;51.526;11.536;2024-01-30T03:38:51;2.94;84.02
51878;SHT31;37911;51.526;11.536;2024-01-30T03:41:54;2.85;84.17
51878;SHT31;37911;51.526;11.536;2024-01-30T03:44:57;2.79;84.31
51878;SHT31;37911;51.526;11.536;2024-01-30T03:48:01;2.73;84.29
51878;SHT31;37911;51.526;11.536;2024-01-30T03:51:04;2.67;84.42
51878;SHT31;37911;51.526;11.536;2024-01-30T03:54:10;2.68;84.82
51878;SHT31;37911;51.526;11.536;2024-01-30T03:57:14;2.68;84.75
51878;SHT31;37911;51.526;11.536;2024-01-30T04:00:17;2.74;84.50
51878;SHT31;37911;51.526;11.536;2024-01-30T04:03:20;2.70;84.61
51878;SHT31;37911;51.526;11.536;2024-01-30T04:06:24;2.73;84.67
51878;SHT31;37911;51.526;11.536;2024-01-30T04:09:30;2.70;84.86
51878;SHT31;37911;51.526;11.536;2024-01-30T04:12:34;2.68;84.70
51878;SHT31;37911;51.526;11.536;2024-01-30T04:15:37;2.58;84.91
51878;SHT31;37911;51.526;11.536;2024-01-30T04:18:40;2.57;85.07
51878;SHT31;37911;51.526;11.536;2024-01-30T04:21:44;2.50;85.30
51878;SHT31;37911;51.526;11.536;2024-01-30T04:24:49;2.44;85.58
51878;SHT31;37911;51.526;11.536;2024-01-30T04:27:53;2.47;85.60
51878;SHT31;37911;51.526;11.536;2024-01-30T04:30:56;2.43;85.71
51878;SHT31;37911;51.526;11.536;2024-01-30T04:33:59;2.40;85.76
51878;SHT31;37911;51.526;11.536;2024-01-30T04:37:03;2.44;85.51
51878;SHT31;37911;51.526;11.536;2024-01-30T04:40:10;2.43;85.40
51878;SHT31;37911;51.526;11.536;2024-01-30T04:43:13;2.33;85.68
51878;SHT31;37911;51.526;11.536;2024-01-30T04:46:17;2.27;85.94
51878;SHT31;37911;51.526;11.536;2024-01-30T04:49:20;2.39;85.92
51878;SHT31;37911;51.526;11.536;2024-01-30T04:52:24;2.33;85.67
51878;SHT31;37911;51.526;11.536;2024-01-30T04:55:30;2.33;85.98
51878;SHT31;37911;51.526;11.536;2024-01-30T04:58:33;2.32;86.13
51878;SHT31;37911;51.526;11.536;2024-01-30T05:01:36;2.39;85.90
51878;SHT31;37911;51.526;11.536;2024-01-30T05:04:40;2.37;85.90
51878;SHT31;37911;51.526;11.536;2024-01-30T05:07:44;2.36;85.93
51878;SHT31;37911;51.526;11.536;2024-01-30T05:10:50;2.40;86.03
51878;SHT31;37911;51.526;11.536;2024-01-30T05:13:53;2.40;85.94
51878;SHT31;37911;51.526;11.536;2024-01-30T05:16:56;2.41;86.07
51878;SHT31;37911;51.526;11.536;2024-01-30T05:19:59;2.39;85.92
51878;SHT31;37911;51.526;11.536;2024-01-30T05:23:04;2.36;85.84
51878;SHT31;37911;51.526;11.536;2024-01-30T05:26:09;2.46;86.25
51878;SHT31;37911;51.526;11.536;2024-01-30T05:29:13;2.53;86.11
51878;SHT31;37911;51.526;11.536;2024-01-30T05:32:16;2.70;85.72
51878;SHT31;37911;51.526;11.536;2024-01-30T05:35:19;2.81;85.14
51878;SHT31;37911;51.526;11.536;2024-01-30T05:38:24;2.87;84.76
51878;SHT31;37911;51.526;11.536;2024-01-30T05:41:30;2.92;84.58
51878;SHT31;37911;51.526;11.536;2024-01-30T05:44:33;3.04;84.32
51878;SHT31;37911;51.526;11.536;2024-01-30T05:47:37;3.07;83.75
51878;SHT31;37911;51.526;11.536;2024-01-30T05:50:40;3.04;83.76
51878;SHT31;37911;51.526;11.536;2024-01-30T05:53:43;3.05;83.99
51878;SHT31;37911;51.526;11.536;2024-01-30T05:56:49;3.14;83.79
51878;SHT31;37911;51.526;11.536;2024-01-30T05:59:52;3.29;83.37
51878;SHT31;37911;51.526;11.536;2024-01-30T06:02:56;3.28;83.32
51878;SHT31;37911;51.526;11.536;2024-01-30T06:05:59;3.22;83.49
51878;SHT31;37911;51.526;11.536;2024-01-30T06:09:02;3.32;83.32
51878;SHT31;37911;51.526;11.536;2024-01-30T06:12:08;3.34;83.11
51878;SHT31;37911;51.526;11.536;2024-01-30T06:15:12;3.39;82.94
51878;SHT31;37911;51.526;11.536;2024-01-30T06:18:16;3.40;82.70
51878;SHT31;37911;51.526;11.536;2024-01-30T06:21:19;3.38;82.61
51878;SHT31;37911;51.526;11.536;2024-01-30T06:24:25;3.31;82.80
51878;SHT31;37911;51.526;11.536;2024-01-30T06:27:31;3.18;83.17
51878;SHT31;37911;51.526;11.536;2024-01-30T06:30:35;3.15;83.29
51878;SHT31;37911;51.526;11.536;2024-01-30T06:33:38;3.08;83.54
51878;SHT31;37911;51.526;11.536;2024-01-30T06:36:42;3.04;83.70
51878;SHT31;37911;51.526;11.536;2024-01-30T06:39:45;3.01;83.88
51878;SHT31;37911;51.526;11.536;2024-01-30T06:42:51;2.92;84.01
51878;SHT31;37911;51.526;11.536;2024-01-30T06:45:55;2.92;84.16
51878;SHT31;37911;51.526;11.536;2024-01-30T06:48:58;2.92;84.25
51878;SHT31;37911;51.526;11.536;2024-01-30T06:52:01;3.00;83.99
51878;SHT31;37911;51.526;11.536;2024-01-30T06:55:06;3.01;83.91
51878;SHT31;37911;51.526;11.536;2024-01-30T06:58:12;2.98;83.94
51878;SHT31;37911;51.526;11.536;2024-01-30T07:01:15;2.97;84.00
51878;SHT31;37911;51.526;11.536;2024-01-30T07:04:19;2.98;83.99
51878;SHT31;37911;51.526;11.536;2024-01-30T07:07:22;2.95;84.02
51878;SHT31;37911;51.526;11.536;2024-01-30T07:10:25;3.05;83.72
51878;SHT31;37911;51.526;11.536;2024-01-30T07:13:31;3.15;83.43
51878;SHT31;37911;51.526;11.536;2024-01-30T07:16:35;3.18;83.35
51878;SHT31;37911;51.526;11.536;2024-01-30T07:19:38;3.19;83.13
51878;SHT31;37911;51.526;11.536;2024-01-30T07:22:42;3.18;82.96
51878;SHT31;37911;51.526;11.536;2024-01-30T07:25:46;3.21;82.94
51878;SHT31;37911;51.526;11.536;2024-01-30T07:28:52;3.24;82.83
51878;SHT31;37911;51.526;11.536;2024-01-30T07:31:56;3.26;82.76
51878;SHT31;37911;51.526;11.536;2024-01-30T07:34:59;3.22;82.86
51878;SHT31;37911;51.526;11.536;2024-01-30T07:38:02;3.24;82.96
51878;SHT31;37911;51.526;11.536;2024-01-30T07:41:06;3.22;82.94
51878;SHT31;37911;51.526;11.536;2024-01-30T07:44:12;3.26;82.91
51878;SHT31;37911;51.526;11.536;2024-01-30T07:47:16;3.35;82.38
51878;SHT31;37911;51.526;11.536;2024-01-30T07:50:19;3.36;82.39
51878;SHT31;37911;51.526;11.536;2024-01-30T07:53:23;3.45;82.11
51878;SHT31;37911;51.526;11.536;2024-01-30T07:56:26;3.48;82.07
51878;SHT31;37911;51.526;11.536;2024-01-30T07:59:32;3.54;81.84
51878;SHT31;37911;51.526;11.536;2024-01-30T08:02:35;3.60;81.68
51878;SHT31;37911;51.526;11.536;2024-01-30T08:05:39;3.63;81.56
51878;SHT31;37911;51.526;11.536;2024-01-30T08:08:42;3.66;81.53
51878;SHT31;37911;51.526;11.536;2024-01-30T08:11:45;3.82;80.99
51878;SHT31;37911;51.526;11.536;2024-01-30T08:14:51;3.85;80.88
51878;SHT31;37911;51.526;11.536;2024-01-30T08:17:54;4.01;80.43
51878;SHT31;37911;51.526;11.536;2024-01-30T08:20:59;4.07;80.06
51878;SHT31;37911;51.526;11.536;2024-01-30T08:24:03;4.14;79.87
51878;SHT31;37911;51.526;11.536;2024-01-30T08:27:06;4.16;79.88
51878;SHT31;37911;51.526;11.536;2024-01-30T08:30:13;4.25;79.42
51878;SHT31;37911;51.526;11.536;2024-01-30T08:33:16;4.28;79.15
51878;SHT31;37911;51.526;11.536;2024-01-30T08:36:20;4.36;78.63
51878;SHT31;37911;51.526;11.536;2024-01-30T08:39:23;4.52;77.68
51878;SHT31;37911;51.526;11.536;2024-01-30T08:42:26;4.57;77.56
51878;SHT31;37911;51.526;11.536;2024-01-30T08:45:32;4.67;77.05
51878;SHT31;37911;51.526;11.536;2024-01-30T08:48:36;4.81;76.64
51878;SHT31;37911;51.526;11.536;2024-01-30T08:51:39;4.91;76.42
51878;SHT31;37911;51.526;11.536;2024-01-30T08:54:42;5.03;75.66
51878;SHT31;37911;51.526;11.536;2024-01-30T08:57:46;5.25;74.85
51878;SHT31;37911;51.526;11.536;2024-01-30T09:00:52;5.44;74.00
51878;SHT31;37911;51.526;11.536;2024-01-30T09:03:55;5.66;73.33
51878;SHT31;37911;51.526;11.536;2024-01-30T09:06:58;5.83;72.45
51878;SHT31;37911;51.526;11.536;2024-01-30T09:10:02;6.04;71.49
51878;SHT31;37911;51.526;11.536;2024-01-30T09:13:06;6.04;70.80
51878;SHT31;37911;51.526;11.536;2024-01-30T09:16:12;6.15;70.68
51878;SHT31;37911;51.526;11.536;2024-01-30T09:19:16;6.21;70.31
51878;SHT31;37911;51.526;11.536;2024-01-30T09:22:19;6.35;69.75
51878;SHT31;37911;51.526;11.536;2024-01-30T09:25:22;6.48;69.28
51878;SHT31;37911;51.526;11.536;2024-01-30T09:28:26;6.57;68.83
51878;SHT31;37911;51.526;11.536;2024-01-30T09:31:32;6.61;68.61
51878;SHT31;37911;51.526;11.536;2024-01-30T09:34:35;6.63;67.89
51878;SHT31;37911;51.526;11.536;2024-01-30T09:37:39;6.53;68.34
51878;SHT31;37911;51.526;11.536;2024-01-30T09:40:43;6.56;68.13
51878;SHT31;37911;51.526;11.536;2024-01-30T09:43:48;6.53;68.60
51878;SHT31;37911;51.526;11.536;2024-01-30T09:46:55;6.76;68.09
51878;SHT31;37911;51.526;11.536;2024-01-30T09:49:59;6.79;68.05
51878;SHT31;37911;51.526;11.536;2024-01-30T09:53:04;6.93;67.48
51878;SHT31;37911;51.526;11.536;2024-01-30T09:56:07;7.00;67.40
51878;SHT31;37911;51.526;11.536;2024-01-30T09:59:11;7.08;66.35
51878;SHT31;37911;51.526;11.536;2024-01-30T10:02:18;7.18;66.46
51878;SHT31;37911;51.526;11.536;2024-01-30T10:05:26;7.26;66.41
51878;SHT31;37911;51.526;11.536;2024-01-30T10:08:30;7.32;66.21
51878;SHT31;37911;51.526;11.536;2024-01-30T10:11:34;7.32;66.14
51878;SHT31;37911;51.526;11.536;2024-01-30T10:14:38;7.30;66.02
51878;SHT31;37911;51.526;11.536;2024-01-30T10:17:44;7.41;65.73
51878;SHT31;37911;51.526;11.536;2024-01-30T10:20:47;7.37;65.65
51878;SHT31;37911;51.526;11.536;2024-01-30T10:23:51;7.38;65.83
51878;SHT31;37911;51.526;11.536;2024-01-30T10:26:54;7.44;66.34
51878;SHT31;37911;51.526;11.536;2024-01-30T10:29:57;7.43;65.87
51878;SHT31;37911;51.526;11.536;2024-01-30T10:33:04;7.38;66.43
51878;SHT31;37911;51.526;11.536;2024-01-30T10:36:08;7.51;66.28
51878;SHT31;37911;51.526;11.536;2024-01-30T10:39:14;7.58;66.90
51878;SHT31;37911;51.526;11.536;2024-01-30T10:42:20;7.75;67.11
51878;SHT31;37911;51.526;11.536;2024-01-30T10:45:28;7.85;66.87
51878;SHT31;37911;51.526;11.536;2024-01-30T10:48:36;8.10;66.80
51878;SHT31;37911;51.526;11.536;2024-01-30T10:51:43;8.21;66.25
51878;SHT31;37911;51.526;11.536;2024-01-30T10:54:50;8.32;66.26
51878;SHT31;37911;51.526;11.536;2024-01-30T10:57:54;8.46;66.14
51878;SHT31;37911;51.526;11.536;2024-01-30T11:00:58;8.63;65.97
51878;SHT31;37911;51.526;11.536;2024-01-30T11:04:04;8.77;65.41
51878;SHT31;37911;51.526;11.536;2024-01-30T11:07:14;8.88;65.36
51878;SHT31;37911;51.526;11.536;2024-01-30T11:10:18;8.97;65.87
51878;SHT31;37911;51.526;11.536;2024-01-30T11:13:21;9.00;65.83
51878;SHT31;37911;51.526;11.536;2024-01-30T11:16:31;9.01;65.93
51878;SHT31;37911;51.526;11.536;2024-01-30T11:19:37;9.04;66.06
51878;SHT31;37911;51.526;11.536;2024-01-30T11:22:42;8.78;66.02
51878;SHT31;37911;51.526;11.536;2024-01-30T11:25:47;8.73;66.78
51878;SHT31;37911;51.526;11.536;2024-01-30T11:28:52;8.87;66.19
51878;SHT31;37911;51.526;11.536;2024-01-30T11:31:57;8.88;66.43
51878;SHT31;37911;51.526;11.536;2024-01-30T11:35:03;8.96;66.03
51878;SHT31;37911;51.526;11.536;2024-01-30T11:38:09;8.97;65.96
51878;SHT31;37911;51.526;11.536;2024-01-30T11:41:13;8.81;66.85
51878;SHT31;37911;51.526;11.536;2024-01-30T11:44:17;8.85;66.24
51878;SHT31;37911;51.526;11.536;2024-01-30T11:47:22;8.83;66.91
51878;SHT31;37911;51.526;11.536;2024-01-30T11:50:28;8.92;67.01
51878;SHT31;37911;51.526;11.536;2024-01-30T11:53:32;9.01;67.14
51878;SHT31;37911;51.526;11.536;2024-01-30T11:56:36;9.17;66.09
51878;SHT31;37911;51.526;11.536;2024-01-30T11:59:40;9.29;66.41
51878;SHT31;37911;51.526;11.536;2024-01-30T12:02:43;9.38;66.68
51878;SHT31;37911;51.526;11.536;2024-01-30T12:05:55;9.48;66.11
51878;SHT31;37911;51.526;11.536;2024-01-30T12:08:59;9.60;65.93
51878;SHT31;37911;51.526;11.536;2024-01-30T12:12:06;9.65;65.44
51878;SHT31;37911;51.526;11.536;2024-01-30T12:15:12;9.60;66.44
51878;SHT31;37911;51.526;11.536;2024-01-30T12:18:18;9.66;66.32
51878;SHT31;37911;51.526;11.536;2024-01-30T12:21:24;9.70;66.56
51878;SHT31;37911;51.526;11.536;2024-01-30T12:24:28;9.65;66.04
51878;SHT31;37911;51.526;11.536;2024-01-30T12:27:31;9.51;66.52
51878;SHT31;37911;51.526;11.536;2024-01-30T12:30:34;9.46;66.73
51878;SHT31;37911;51.526;11.536;2024-01-30T12:33:38;9.25;67.67
51878;SHT31;37911;51.526;11.536;2024-01-30T12:36:44;9.14;68.42
51878;SHT31;37911;51.526;11.536;2024-01-30T12:39:48;9.07;68.37
51878;SHT31;37911;51.526;11.536;2024-01-30T12:42:51;9.00;68.61
51878;SHT31;37911;51.526;11.536;2024-01-30T12:45:55;8.89;69.18
51878;SHT31;37911;51.526;11.536;2024-01-30T12:48:58;8.87;69.66
51878;SHT31;37911;51.526;11.536;2024-01-30T12:52:05;8.87;70.07
51878;SHT31;37911;51.526;11.536;2024-01-30T12:55:08;8.81;70.06
51878;SHT31;37911;51.526;11.536;2024-01-30T12:58:12;8.74;70.40
51878;SHT31;37911;51.526;11.536;2024-01-30T13:01:15;8.78;70.42
51878;SHT31;37911;51.526;11.536;2024-01-30T13:04:18;8.73;70.85
51878;SHT31;37911;51.526;11.536;2024-01-30T13:07:24;8.64;71.36
51878;SHT31;37911;51.526;11.536;2024-01-30T13:10:28;8.67;71.06
51878;SHT31;37911;51.526;11.536;2024-01-30T13:13:31;8.70;71.08
51878;SHT31;37911;51.526;11.536;2024-01-30T13:16:36;8.73;71.38
51878;SHT31;37911;51.526;11.536;2024-01-30T13:19:39;8.78;71.28
51878;SHT31;37911;51.526;11.536;2024-01-30T13:22:47;8.76;71.46
51878;SHT31;37911;51.526;11.536;2024-01-30T13:25:50;8.78;71.65
51878;SHT31;37911;51.526;11.536;2024-01-30T13:28:54;8.78;71.52
51878;SHT31;37911;51.526;11.536;2024-01-30T13:31:57;8.77;71.53
51878;SHT31;37911;51.526;11.536;2024-01-30T13:35:01;8.81;71.53
51878;SHT31;37911;51.526;11.536;2024-01-30T13:38:07;8.81;71.98
51878;SHT31;37911;51.526;11.536;2024-01-30T13:41:11;8.76;72.23
51878;SHT31;37911;51.526;11.536;2024-01-30T13:44:14;8.80;71.80
51878;SHT31;37911;51.526;11.536;2024-01-30T13:47:19;8.76;72.09
51878;SHT31;37911;51.526;11.536;2024-01-30T13:50:23;8.76;72.24
51878;SHT31;37911;51.526;11.536;2024-01-30T13:53:29;8.70;72.30
51878;SHT31;37911;51.526;11.536;2024-01-30T13:56:32;8.73;72.11
51878;SHT31;37911;51.526;11.536;2024-01-30T13:59:37;8.68;72.37
51878;SHT31;37911;51.526;11.536;2024-01-30T14:02:41;8.64;72.53
51878;SHT31;37911;51.526;11.536;2024-01-30T14:05:44;8.56;72.93
51878;SHT31;37911;51.526;11.536;2024-01-30T14:08:50;8.56;73.15
51878;SHT31;37911;51.526;11.536;2024-01-30T14:11:55;8.56;72.97
51878;SHT31;37911;51.526;11.536;2024-01-30T14:15:00;8.56;73.06
51878;SHT31;37911;51.526;11.536;2024-01-30T14:18:03;8.56;73.08
51878;SHT31;37911;51.526;11.536;2024-01-30T14:21:09;8.52;73.09
51878;SHT31;37911;51.526;11.536;2024-01-30T14:24:20;8.52;73.02
51878;SHT31;37911;51.526;11.536;2024-01-30T14:27:29;8.43;73.47
51878;SHT31;37911;51.526;11.536;2024-01-30T14:30:32;8.39;73.80
51878;SHT31;37911;51.526;11.536;2024-01-30T14:33:36;8.34;74.07
51878;SHT31;37911;51.526;11.536;2024-01-30T14:36:39;8.34;74.14
51878;SHT31;37911;51.526;11.536;2024-01-30T14:39:45;8.33;74.20
51878;SHT31;37911;51.526;11.536;2024-01-30T14:42:49;8.32;74.26
51878;SHT31;37911;51.526;11.536;2024-01-30T14:45:52;8.28;74.59
51878;SHT31;37911;51.526;11.536;2024-01-30T14:48:55;8.26;74.85
51878;SHT31;37911;51.526;11.536;2024-01-30T14:52:00;8.23;75.12
51878;SHT31;37911;51.526;11.536;2024-01-30T14:55:07;8.22;74.99
51878;SHT31;37911;51.526;11.536;2024-01-30T14:58:11;8.28;74.76
51878;SHT31;37911;51.526;11.536;2024-01-30T15:01:14;8.22;75.15
51878;SHT31;37911;51.526;11.536;2024-01-30T15:04:17;8.22;75.14
51878;SHT31;37911;51.526;11.536;2024-01-30T15:07:21;8.19;75.27
51878;SHT31;37911;51.526;11.536;2024-01-30T15:10:27;8.14;75.40
51878;SHT31;37911;51.526;11.536;2024-01-30T15:13:30;8.16;75.36
51878;SHT31;37911;51.526;11.536;2024-01-30T15:16:34;8.17;75.25
51878;SHT31;37911;51.526;11.536;2024-01-30T15:19:37;8.14;75.59
51878;SHT31;37911;51.526;11.536;2024-01-30T15:22:41;8.13;75.58
51878;SHT31;37911;51.526;11.536;2024-01-30T15:25:48;8.23;75.21
51878;SHT31;37911;51.526;11.536;2024-01-30T15:28:51;8.17;75.21
51878;SHT31;37911;51.526;11.536;2024-01-30T15:31:54;8.21;75.41
51878;SHT31;37911;51.526;11.536;2024-01-30T15:34:59;8.14;75.56
51878;SHT31;37911;51.526;11.536;2024-01-30T15:38:04;8.03;75.96
51878;SHT31;37911;51.526;11.536;2024-01-30T15:41:11;7.99;75.96
51878;SHT31;37911;51.526;11.536;2024-01-30T15:44:14;8.01;76.16
51878;SHT31;37911;51.526;11.536;2024-01-30T15:47:18;7.99;76.28
51878;SHT31;37911;51.526;11.536;2024-01-30T15:50:21;8.01;76.42
51878;SHT31;37911;51.526;11.536;2024-01-30T15:53:26;8.06;76.34
51878;SHT31;37911;51.526;11.536;2024-01-30T15:56:32;8.07;76.37
51878;SHT31;37911;51.526;11.536;2024-01-30T15:59:36;8.02;76.73
51878;SHT31;37911;51.526;11.536;2024-01-30T16:02:39;8.07;76.70
51878;SHT31;37911;51.526;11.536;2024-01-30T16:05:43;8.03;76.70
51878;SHT31;37911;51.526;11.536;2024-01-30T16:08:51;7.93;76.83
51878;SHT31;37911;51.526;11.536;2024-01-30T16:11:56;7.96;76.70
51878;SHT31;37911;51.526;11.536;2024-01-30T16:15:00;7.85;77.19
51878;SHT31;37911;51.526;11.536;2024-01-30T16:18:04;7.88;76.81
51878;SHT31;37911;51.526;11.536;2024-01-30T16:21:07;7.81;77.28
51878;SHT31;37911;51.526;11.536;2024-01-30T16:24:12;7.82;77.24
51878;SHT31;37911;51.526;11.536;2024-01-30T16:27:18;7.78;77.42
51878;SHT31;37911;51.526;11.536;2024-01-30T16:30:22;7.74;77.61
51878;SHT31;37911;51.526;11.536;2024-01-30T16:33:25;7.67;77.97
51878;SHT31;37911;51.526;11.536;2024-01-30T16:36:28;7.71;77.82
51878;SHT31;37911;51.526;11.536;2024-01-30T16:39:31;7.69;77.98
51878;SHT31;37911;51.526;11.536;2024-01-30T16:42:37;7.65;78.14
51878;SHT31;37911;51.526;11.536;2024-01-30T16:45:41;7.64;78.44
51878;SHT31;37911;51.526;11.536;2024-01-30T16:48:44;7.67;78.31
51878;SHT31;37911;51.526;11.536;2024-01-30T16:51:49;7.67;78.35
51878;SHT31;37911;51.526;11.536;2024-01-30T16:54:53;7.69;78.20
51878;SHT31;37911;51.526;11.536;2024-01-30T16:57:59;7.71;78.27
51878;SHT31;37911;51.526;11.536;2024-01-30T17:01:03;7.65;78.50
51878;SHT31;37911;51.526;11.536;2024-01-30T17:04:06;7.59;78.64
51878;SHT31;37911;51.526;11.536;2024-01-30T17:07:10;7.61;78.64
51878;SHT31;37911;51.526;11.536;2024-01-30T17:10:13;7.58;78.79
51878;SHT31;37911;51.526;11.536;2024-01-30T17:13:20;7.54;78.86
51878;SHT31;37911;51.526;11.536;2024-01-30T17:16:24;7.52;79.00
51878;SHT31;37911;51.526;11.536;2024-01-30T17:19:27;7.46;79.20
51878;SHT31;37911;51.526;11.536;2024-01-30T17:22:31;7.43;79.34
51878;SHT31;37911;51.526;11.536;2024-01-30T17:25:34;7.37;79.54
51878;SHT31;37911;51.526;11.536;2024-01-30T17:28:40;7.28;79.72
51878;SHT31;37911;51.526;11.536;2024-01-30T17:31:44;7.26;79.92
51878;SHT31;37911;51.526;11.536;2024-01-30T17:34:48;7.17;80.02
51878;SHT31;37911;51.526;11.536;2024-01-30T17:37:52;7.16;80.22
51878;SHT31;37911;51.526;11.536;2024-01-30T17:40:55;7.10;80.34
51878;SHT31;37911;51.526;11.536;2024-01-30T17:44:01;7.13;80.53
51878;SHT31;37911;51.526;11.536;2024-01-30T17:47:04;7.10;80.54
51878;SHT31;37911;51.526;11.536;2024-01-30T17:50:09;7.10;80.61
51878;SHT31;37911;51.526;11.536;2024-01-30T17:53:13;7.08;80.57
51878;SHT31;37911;51.526;11.536;2024-01-30T17:56:16;7.06;80.55
51878;SHT31;37911;51.526;11.536;2024-01-30T17:59:23;7.08;80.57
51878;SHT31;37911;51.526;11.536;2024-01-30T18:02:26;7.06;80.64
51878;SHT31;37911;51.526;11.536;2024-01-30T18:05:30;7.04;80.63
51878;SHT31;37911;51.526;11.536;2024-01-30T18:08:33;7.06;80.69
51878;SHT31;37911;51.526;11.536;2024-01-30T18:11:36;7.00;80.76
51878;SHT31;37911;51.526;11.536;2024-01-30T18:14:42;6.94;80.79
51878;SHT31;37911;51.526;11.536;2024-01-30T18:17:46;6.93;80.91
51878;SHT31;37911;51.526;11.536;2024-01-30T18:20:49;6.90;81.08
51878;SHT31;37911;51.526;11.536;2024-01-30T18:23:52;6.85;81.23
51878;SHT31;37911;51.526;11.536;2024-01-30T18:26:56;6.85;81.30
51878;SHT31;37911;51.526;11.536;2024-01-30T18:30:02;6.79;81.40
51878;SHT31;37911;51.526;11.536;2024-01-30T18:33:05;6.75;81.62
51878;SHT31;37911;51.526;11.536;2024-01-30T18:36:09;6.71;81.76
51878;SHT31;37911;51.526;11.536;2024-01-30T18:39:12;6.62;82.11
51878;SHT31;37911;51.526;11.536;2024-01-30T18:42:16;6.59;82.18
51878;SHT31;37911;51.526;11.536;2024-01-30T18:45:22;6.55;82.19
51878;SHT31;37911;51.526;11.536;2024-01-30T18:48:26;6.48;82.65
51878;SHT31;37911;51.526;11.536;2024-01-30T18:51:29;6.43;82.86
51878;SHT31;37911;51.526;11.536;2024-01-30T18:54:33;6.48;82.83
51878;SHT31;37911;51.526;11.536;2024-01-30T18:57:36;6.48;82.96
51878;SHT31;37911;51.526;11.536;2024-01-30T19:00:42;6.55;83.08
51878;SHT31;37911;51.526;11.536;2024-01-30T19:03:45;6.57;83.06
51878;SHT31;37911;51.526;11.536;2024-01-30T19:06:49;6.57;83.01
51878;SHT31;37911;51.526;11.536;2024-01-30T19:09:52;6.63;83.27
51878;SHT31;37911;51.526;11.536;2024-01-30T19:12:56;6.63;83.19
51878;SHT31;37911;51.526;11.536;2024-01-30T19:16:03;6.61;83.23
51878;SHT31;37911;51.526;11.536;2024-01-30T19:19:07;6.69;83.33
51878;SHT31;37911;51.526;11.536;2024-01-30T19:22:10;6.80;83.43